createdAt,value
2017-06-20T00:00:37.854Z,28
2017-06-20T00:01:37.883Z,27.99
2017-06-20T00:02:37.919Z,27.96
2017-06-20T00:03:37.674Z,27.93
2017-06-20T00:04:37.969Z,27.94
2017-06-20T00:05:38.002Z,27.93
2017-06-20T00:06:38.033Z,27.92
2017-06-20T00:07:37.756Z,27.87
2017-06-20T00:08:38.089Z,27.85
2017-06-20T00:09:38.126Z,28.02
2017-06-20T00:10:37.843Z,27.92
2017-06-20T00:11:38.182Z,27.93
2017-06-20T00:12:38.217Z,27.84
2017-06-20T00:13:37.925Z,27.87
2017-06-20T00:14:37.958Z,27.93
2017-06-20T00:15:37.992Z,27.88
2017-06-20T00:16:38.344Z,27.93
2017-06-20T00:17:38.053Z,27.87
2017-06-20T00:18:38.081Z,27.92
2017-06-20T00:19:38.106Z,27.92
2017-06-20T00:20:38.172Z,27.9
2017-06-20T00:21:38.487Z,27.85
2017-06-20T00:22:38.513Z,27.88
2017-06-20T00:23:38.238Z,27.9
2017-06-20T00:24:38.267Z,27.93
2017-06-20T00:25:38.603Z,27.88
2017-06-20T00:26:38.316Z,27.84
2017-06-20T00:27:38.669Z,27.9
2017-06-20T00:28:38.694Z,27.82
2017-06-20T00:29:38.098Z,27.82
2017-06-20T00:30:38.442Z,27.96
2017-06-20T00:31:38.787Z,27.82
2017-06-20T00:32:38.500Z,27.81
2017-06-20T00:33:38.855Z,27.85
2017-06-20T00:34:38.564Z,27.85
2017-06-20T00:35:38.904Z,27.78
2017-06-20T00:36:38.933Z,27.85
2017-06-20T00:37:38.969Z,27.87
2017-06-20T00:38:39.002Z,27.78
2017-06-20T00:39:39.028Z,27.82
2017-06-20T00:40:39.055Z,27.77
2017-06-20T00:41:39.083Z,27.79
2017-06-20T00:42:39.118Z,27.78
2017-06-20T00:43:38.834Z,27.77
2017-06-20T00:44:38.551Z,27.79
2017-06-20T00:45:39.459Z,27.82
2017-06-20T00:46:38.925Z,27.79
2017-06-20T00:47:38.957Z,27.82
2017-06-20T00:48:38.982Z,27.75
2017-06-20T00:49:39.009Z,27.78
2017-06-20T00:50:39.292Z,27.81
2017-06-20T00:51:39.073Z,27.78
2017-06-20T00:52:39.102Z,27.78
2017-06-20T00:53:39.452Z,27.78
2017-06-20T00:54:39.167Z,27.79
2017-06-20T00:55:39.448Z,27.77
2017-06-20T00:56:39.541Z,27.75
2017-06-20T00:57:39.257Z,27.77
2017-06-20T00:58:38.970Z,27.78
2017-06-20T00:59:39.624Z,27.77
2017-06-20T01:00:39.597Z,27.77
2017-06-20T01:01:39.685Z,27.78
2017-06-20T01:02:39.721Z,27.69
2017-06-20T01:03:39.747Z,27.78
2017-06-20T01:04:39.779Z,27.7
2017-06-20T01:05:39.749Z,27.74
2017-06-20T01:06:39.521Z,27.67
2017-06-20T01:07:39.897Z,27.77
2017-06-20T01:08:39.894Z,27.67
2017-06-20T01:09:39.616Z,27.77
2017-06-20T01:10:39.896Z,27.69
2017-06-20T01:11:39.988Z,27.7
2017-06-20T01:12:39.713Z,27.69
2017-06-20T01:13:40.047Z,27.74
2017-06-20T01:14:39.763Z,27.69
2017-06-20T01:15:40.041Z,27.74
2017-06-20T01:16:40.138Z,27.74
2017-06-20T01:17:40.171Z,27.65
2017-06-20T01:18:40.199Z,27.66
2017-06-20T01:19:39.915Z,27.69
2017-06-20T01:20:40.197Z,27.72
2017-06-20T01:21:39.973Z,27.7
2017-06-20T01:22:40.315Z,27.67
2017-06-20T01:23:40.351Z,27.69
2017-06-20T01:24:40.060Z,27.66
2017-06-20T01:25:40.661Z,27.7
2017-06-20T01:26:40.434Z,27.63
2017-06-20T01:27:40.467Z,27.63
2017-06-20T01:28:40.491Z,27.69
2017-06-20T01:29:40.212Z,27.7
2017-06-20T01:30:40.506Z,27.65
2017-06-20T01:31:40.585Z,27.7
2017-06-20T01:32:40.304Z,27.62
2017-06-20T01:33:40.652Z,27.63
2017-06-20T01:34:40.451Z,27.69
2017-06-20T01:35:40.953Z,27.62
2017-06-20T01:36:40.422Z,27.66
2017-06-20T01:37:40.766Z,27.67
2017-06-20T01:38:40.796Z,27.65
2017-06-20T01:39:40.512Z,27.63
2017-06-20T01:40:41.102Z,27.66
2017-06-20T01:41:40.886Z,27.7
2017-06-20T01:42:40.596Z,27.66
2017-06-20T01:43:40.944Z,27.66
2017-06-20T01:44:40.972Z,27.57
2017-06-20T01:45:41.256Z,27.59
2017-06-20T01:46:41.035Z,27.59
2017-06-20T01:47:41.050Z,27.69
2017-06-20T01:48:41.096Z,27.6
2017-06-20T01:49:40.816Z,27.6
2017-06-20T01:50:41.092Z,27.54
2017-06-20T01:51:40.879Z,27.55
2017-06-20T01:52:40.895Z,27.6
2017-06-20T01:53:40.924Z,27.55
2017-06-20T01:54:41.276Z,27.51
2017-06-20T01:55:41.244Z,27.55
2017-06-20T01:56:41.326Z,27.55
2017-06-20T01:57:41.363Z,27.57
2017-06-20T01:58:41.387Z,27.62
2017-06-20T01:59:41.429Z,27.6
2017-06-20T02:00:41.701Z,27.62
2017-06-20T02:01:41.210Z,27.55
2017-06-20T02:02:41.190Z,27.57
2017-06-20T02:03:41.544Z,27.57
2017-06-20T02:04:41.265Z,27.59
2017-06-20T02:05:41.597Z,27.59
2017-06-20T02:06:41.627Z,27.57
2017-06-20T02:07:41.343Z,27.47
2017-06-20T02:08:41.691Z,27.57
2017-06-20T02:09:41.408Z,27.59
2017-06-20T02:10:41.748Z,27.5
2017-06-20T02:11:41.774Z,27.51
2017-06-20T02:12:41.182Z,27.46
2017-06-20T02:13:41.840Z,27.54
2017-06-20T02:14:41.553Z,27.55
2017-06-20T02:15:41.906Z,27.49
2017-06-20T02:16:41.931Z,27.51
2017-06-20T02:17:41.648Z,27.51
2017-06-20T02:18:41.983Z,27.57
2017-06-20T02:19:41.697Z,27.55
2017-06-20T02:20:42.046Z,27.47
2017-06-20T02:21:42.080Z,27.51
2017-06-20T02:22:42.109Z,27.43
2017-06-20T02:23:41.820Z,27.47
2017-06-20T02:24:42.168Z,27.51
2017-06-20T02:25:42.199Z,27.57
2017-06-20T02:26:42.226Z,27.49
2017-06-20T02:27:42.255Z,27.47
2017-06-20T02:28:42.284Z,27.49
2017-06-20T02:29:42.314Z,27.55
2017-06-20T02:30:42.339Z,27.47
2017-06-20T02:31:42.370Z,27.46
2017-06-20T02:32:42.404Z,27.46
2017-06-20T02:33:42.115Z,27.49
2017-06-20T02:34:42.461Z,27.47
2017-06-20T02:35:42.490Z,27.46
2017-06-20T02:36:42.522Z,27.5
2017-06-20T02:37:42.553Z,27.49
2017-06-20T02:38:41.952Z,27.5
2017-06-20T02:39:42.609Z,27.55
2017-06-20T02:40:42.334Z,27.55
2017-06-20T02:41:42.354Z,27.46
2017-06-20T02:42:42.388Z,27.54
2017-06-20T02:43:42.417Z,27.49
2017-06-20T02:44:42.765Z,27.54
2017-06-20T02:45:42.786Z,27.39
2017-06-20T02:46:42.819Z,27.43
2017-06-20T02:47:42.843Z,27.46
2017-06-20T02:48:42.881Z,27.47
2017-06-20T02:49:42.907Z,27.37
2017-06-20T02:50:42.626Z,27.57
2017-06-20T02:51:43.227Z,27.46
2017-06-20T02:52:42.681Z,27.44
2017-06-20T02:53:43.030Z,27.47
2017-06-20T02:54:43.059Z,27.43
2017-06-20T02:55:43.087Z,27.44
2017-06-20T02:56:43.363Z,27.44
2017-06-20T02:57:43.145Z,27.4
2017-06-20T02:58:43.185Z,27.49
2017-06-20T02:59:43.211Z,27.54
2017-06-20T03:00:42.925Z,27.41
2017-06-20T03:01:43.207Z,27.4
2017-06-20T03:02:43.299Z,27.39
2017-06-20T03:03:43.328Z,27.37
2017-06-20T03:04:42.726Z,27.4
2017-06-20T03:05:42.762Z,27.37
2017-06-20T03:06:43.668Z,27.49
2017-06-20T03:07:43.440Z,27.37
2017-06-20T03:08:43.473Z,27.39
2017-06-20T03:09:43.500Z,27.4
2017-06-20T03:10:43.531Z,27.37
2017-06-20T03:11:43.807Z,27.41
2017-06-20T03:12:43.273Z,27.46
2017-06-20T03:13:43.617Z,27.4
2017-06-20T03:14:43.645Z,27.36
2017-06-20T03:15:43.681Z,27.39
2017-06-20T03:16:43.652Z,27.39
2017-06-20T03:17:43.424Z,27.39
2017-06-20T03:18:43.769Z,27.37
2017-06-20T03:19:43.790Z,27.39
2017-06-20T03:20:43.835Z,27.41
2017-06-20T03:21:43.799Z,27.36
2017-06-20T03:22:43.580Z,27.4
2017-06-20T03:23:43.605Z,27.39
2017-06-20T03:24:43.636Z,27.37
2017-06-20T03:25:43.979Z,27.43
2017-06-20T03:26:43.942Z,27.51
2017-06-20T03:27:43.721Z,27.32
2017-06-20T03:28:43.758Z,27.34
2017-06-20T03:29:44.098Z,27.36
2017-06-20T03:30:43.818Z,27.47
2017-06-20T03:31:44.100Z,27.39
2017-06-20T03:32:43.873Z,27.39
2017-06-20T03:33:43.902Z,27.4
2017-06-20T03:34:44.246Z,27.41
2017-06-20T03:35:44.271Z,27.4
2017-06-20T03:36:43.925Z,27.4
2017-06-20T03:37:44.329Z,27.34
2017-06-20T03:38:44.370Z,27.36
2017-06-20T03:39:44.391Z,27.36
2017-06-20T03:40:44.421Z,27.4
2017-06-20T03:41:44.704Z,27.37
2017-06-20T03:42:44.486Z,27.36
2017-06-20T03:43:44.514Z,27.36
2017-06-20T03:44:44.543Z,27.4
2017-06-20T03:45:44.571Z,27.39
2017-06-20T03:46:44.853Z,27.43
2017-06-20T03:47:44.313Z,27.36
2017-06-20T03:48:44.347Z,27.36
2017-06-20T03:49:44.379Z,27.36
2017-06-20T03:50:44.405Z,27.34
2017-06-20T03:51:44.373Z,27.39
2017-06-20T03:52:44.782Z,27.34
2017-06-20T03:53:44.805Z,27.37
2017-06-20T03:54:44.527Z,27.37
2017-06-20T03:55:44.867Z,27.32
2017-06-20T03:56:44.848Z,27.41
2017-06-20T03:57:44.298Z,27.37
2017-06-20T03:58:44.951Z,27.32
2017-06-20T03:59:44.982Z,27.41
2017-06-20T04:00:45.016Z,27.39
2017-06-20T04:01:45.297Z,27.36
2017-06-20T04:02:44.754Z,27.36
2017-06-20T04:03:44.787Z,27.34
2017-06-20T04:04:44.820Z,27.41
2017-06-20T04:05:45.156Z,27.37
2017-06-20T04:06:45.442Z,27.41
2017-06-20T04:07:44.909Z,27.39
2017-06-20T04:08:45.255Z,27.37
2017-06-20T04:09:44.965Z,27.34
2017-06-20T04:10:45.313Z,27.44
2017-06-20T04:11:45.277Z,27.41
2017-06-20T04:12:45.370Z,27.36
2017-06-20T04:13:45.398Z,27.34
2017-06-20T04:14:45.428Z,27.44
2017-06-20T04:15:45.462Z,27.34
2017-06-20T04:16:45.430Z,27.37
2017-06-20T04:17:45.522Z,27.36
2017-06-20T04:18:45.551Z,27.27
2017-06-20T04:19:45.580Z,27.37
2017-06-20T04:20:45.293Z,27.36
2017-06-20T04:21:45.582Z,27.32
2017-06-20T04:22:45.673Z,27.36
2017-06-20T04:23:45.407Z,27.4
2017-06-20T04:24:45.415Z,27.41
2017-06-20T04:25:45.756Z,27.37
2017-06-20T04:26:45.721Z,27.36
2017-06-20T04:27:45.504Z,27.32
2017-06-20T04:28:45.843Z,27.28
2017-06-20T04:29:45.584Z,27.31
2017-06-20T04:30:45.905Z,27.41
2017-06-20T04:31:46.182Z,27.32
2017-06-20T04:32:45.962Z,27.36
2017-06-20T04:33:45.367Z,27.36
2017-06-20T04:34:45.708Z,27.31
2017-06-20T04:35:45.736Z,27.34
2017-06-20T04:36:46.330Z,27.36
2017-06-20T04:37:46.107Z,27.39
2017-06-20T04:38:46.143Z,27.4
2017-06-20T04:39:46.172Z,27.39
2017-06-20T04:40:45.880Z,27.31
2017-06-20T04:41:46.482Z,27.29
2017-06-20T04:42:45.937Z,27.39
2017-06-20T04:43:46.328Z,27.39
2017-06-20T04:44:46.316Z,27.37
2017-06-20T04:45:45.726Z,27.4
2017-06-20T04:46:46.310Z,27.41
2017-06-20T04:47:46.090Z,27.37
2017-06-20T04:48:46.127Z,27.34
2017-06-20T04:49:46.151Z,27.41
2017-06-20T04:50:46.498Z,27.36
2017-06-20T04:51:46.779Z,27.47
2017-06-20T04:52:46.558Z,27.43
2017-06-20T04:53:46.586Z,27.39
2017-06-20T04:54:46.608Z,27.36
2017-06-20T04:55:46.646Z,27.34
2017-06-20T04:56:46.930Z,27.46
2017-06-20T04:57:46.708Z,27.39
2017-06-20T04:58:46.732Z,27.41
2017-06-20T04:59:46.770Z,27.41
2017-06-20T05:00:46.789Z,27.41
2017-06-20T05:01:47.118Z,27.43
2017-06-20T05:02:46.847Z,27.41
2017-06-20T05:03:46.572Z,27.36
2017-06-20T05:04:46.908Z,27.37
2017-06-20T05:05:46.942Z,27.34
2017-06-20T05:06:46.662Z,27.44
2017-06-20T05:07:46.999Z,27.39
2017-06-20T05:08:47.021Z,27.41
2017-06-20T05:09:47.049Z,27.41
2017-06-20T05:10:46.777Z,27.31
2017-06-20T05:11:47.115Z,27.39
2017-06-20T05:12:46.840Z,27.32
2017-06-20T05:13:47.177Z,27.32
2017-06-20T05:14:47.206Z,27.36
2017-06-20T05:15:47.237Z,27.31
2017-06-20T05:16:47.263Z,27.47
2017-06-20T05:17:46.983Z,27.4
2017-06-20T05:18:47.316Z,27.4
2017-06-20T05:19:47.349Z,27.5
2017-06-20T05:20:47.381Z,27.49
2017-06-20T05:21:47.408Z,27.44
2017-06-20T05:22:47.131Z,27.39
2017-06-20T05:23:47.156Z,27.51
2017-06-20T05:24:47.497Z,27.44
2017-06-20T05:25:47.529Z,27.44
2017-06-20T05:26:47.559Z,27.4
2017-06-20T05:27:47.270Z,27.49
2017-06-20T05:28:47.622Z,27.57
2017-06-20T05:29:47.329Z,27.46
2017-06-20T05:30:47.675Z,27.47
2017-06-20T05:31:47.708Z,27.49
2017-06-20T05:32:47.108Z,27.5
2017-06-20T05:33:47.454Z,27.37
2017-06-20T05:34:47.799Z,27.47
2017-06-20T05:35:47.514Z,27.47
2017-06-20T05:36:47.857Z,27.51
2017-06-20T05:37:47.881Z,27.49
2017-06-20T05:38:47.909Z,27.47
2017-06-20T05:39:47.948Z,27.5
2017-06-20T05:40:48.022Z,27.5
2017-06-20T05:41:47.695Z,27.54
2017-06-20T05:42:48.034Z,27.49
2017-06-20T05:43:48.065Z,27.54
2017-06-20T05:44:48.090Z,27.47
2017-06-20T05:45:48.122Z,27.46
2017-06-20T05:46:47.834Z,27.57
2017-06-20T05:47:47.873Z,27.55
2017-06-20T05:48:48.277Z,27.49
2017-06-20T05:49:47.933Z,27.44
2017-06-20T05:50:47.961Z,27.51
2017-06-20T05:51:48.304Z,27.47
2017-06-20T05:52:48.018Z,27.47
2017-06-20T05:53:48.361Z,27.49
2017-06-20T05:54:48.394Z,27.63
2017-06-20T05:55:48.423Z,27.55
2017-06-20T05:56:48.452Z,27.47
2017-06-20T05:57:48.164Z,27.5
2017-06-20T05:58:48.190Z,27.5
2017-06-20T05:59:48.539Z,27.51
2017-06-20T06:00:48.562Z,27.59
2017-06-20T06:01:48.591Z,27.55
2017-06-20T06:02:48.628Z,27.62
2017-06-20T06:03:48.648Z,27.59
2017-06-20T06:04:48.375Z,27.57
2017-06-20T06:05:48.401Z,27.65
2017-06-20T06:06:48.436Z,27.57
2017-06-20T06:07:48.777Z,27.65
2017-06-20T06:08:48.493Z,27.65
2017-06-20T06:09:48.839Z,27.6
2017-06-20T06:10:48.863Z,27.62
2017-06-20T06:11:48.897Z,27.59
2017-06-20T06:12:48.601Z,27.66
2017-06-20T06:13:48.949Z,27.66
2017-06-20T06:14:48.362Z,27.63
2017-06-20T06:15:48.388Z,27.66
2017-06-20T06:16:48.732Z,27.67
2017-06-20T06:17:49.125Z,27.69
2017-06-20T06:18:48.781Z,27.72
2017-06-20T06:19:49.147Z,27.67
2017-06-20T06:20:49.177Z,27.67
2017-06-20T06:21:49.193Z,27.72
2017-06-20T06:22:49.222Z,27.77
2017-06-20T06:23:48.933Z,27.72
2017-06-20T06:24:49.279Z,27.75
2017-06-20T06:25:48.995Z,27.75
2017-06-20T06:26:49.336Z,27.74
2017-06-20T06:27:49.374Z,27.78
2017-06-20T06:28:49.090Z,27.77
2017-06-20T06:29:49.431Z,27.78
2017-06-20T06:30:49.150Z,27.82
2017-06-20T06:31:49.489Z,27.82
2017-06-20T06:32:49.206Z,27.85
2017-06-20T06:33:49.247Z,27.79
2017-06-20T06:34:49.575Z,27.88
2017-06-20T06:35:49.600Z,27.81
2017-06-20T06:36:49.640Z,27.87
2017-06-20T06:37:49.665Z,27.9
2017-06-20T06:38:49.698Z,27.84
2017-06-20T06:39:49.410Z,27.9
2017-06-20T06:40:49.756Z,27.92
2017-06-20T06:41:49.783Z,27.9
2017-06-20T06:42:49.829Z,27.94
2017-06-20T06:43:49.842Z,27.9
2017-06-20T06:44:49.560Z,27.92
2017-06-20T06:45:49.899Z,27.99
2017-06-20T06:46:49.625Z,27.92
2017-06-20T06:47:49.962Z,27.84
2017-06-20T06:48:49.682Z,27.94
2017-06-20T06:49:50.027Z,27.93
2017-06-20T06:50:49.824Z,27.94
2017-06-20T06:51:50.081Z,27.93
2017-06-20T06:52:50.110Z,27.87
2017-06-20T06:53:49.835Z,27.99
2017-06-20T06:54:50.167Z,27.93
2017-06-20T06:55:49.891Z,27.92
2017-06-20T06:56:50.237Z,27.96
2017-06-20T06:57:49.949Z,27.94
2017-06-20T06:58:50.292Z,27.97
2017-06-20T06:59:50.324Z,28.02
2017-06-20T07:00:50.361Z,28
2017-06-20T07:01:50.390Z,27.94
2017-06-20T07:02:50.110Z,27.99
2017-06-20T07:03:50.443Z,27.93
2017-06-20T07:04:50.476Z,27.96
2017-06-20T07:05:50.188Z,27.97
2017-06-20T07:06:50.533Z,28
2017-06-20T07:07:50.565Z,28.04
2017-06-20T07:08:50.596Z,28.07
2017-06-20T07:09:50.623Z,28.02
2017-06-20T07:10:50.653Z,28.04
2017-06-20T07:11:50.370Z,28.04
2017-06-20T07:12:50.402Z,28.07
2017-06-20T07:13:50.747Z,28.04
2017-06-20T07:14:50.776Z,28.09
2017-06-20T07:15:50.494Z,28.11
2017-06-20T07:16:50.523Z,28.09
2017-06-20T07:17:50.547Z,28.06
2017-06-20T07:18:50.898Z,28.03
2017-06-20T07:19:50.614Z,28.06
2017-06-20T07:20:50.956Z,28.06
2017-06-20T07:21:50.357Z,28.14
2017-06-20T07:22:51.079Z,28.03
2017-06-20T07:23:50.460Z,28.09
2017-06-20T07:24:51.072Z,28.06
2017-06-20T07:25:50.797Z,28.11
2017-06-20T07:26:50.510Z,28.06
2017-06-20T07:27:51.163Z,28.17
2017-06-20T07:28:51.196Z,28.09
2017-06-20T07:29:51.223Z,28.06
2017-06-20T07:30:50.939Z,28.11
2017-06-20T07:31:50.658Z,28.18
2017-06-20T07:32:51.319Z,28.14
2017-06-20T07:33:51.352Z,28.17
2017-06-20T07:34:50.747Z,28.15
2017-06-20T07:35:51.401Z,28.12
2017-06-20T07:36:51.126Z,28.11
2017-06-20T07:37:51.479Z,28.07
2017-06-20T07:38:51.512Z,28.18
2017-06-20T07:39:51.200Z,28.12
2017-06-20T07:40:51.574Z,28.12
2017-06-20T07:41:51.271Z,28.12
2017-06-20T07:42:51.615Z,28.09
2017-06-20T07:43:51.645Z,28.19
2017-06-20T07:44:51.360Z,28.11
2017-06-20T07:45:51.399Z,28.14
2017-06-20T07:46:51.418Z,28.14
2017-06-20T07:47:51.139Z,28.17
2017-06-20T07:48:51.476Z,28.15
2017-06-20T07:49:51.821Z,28.11
2017-06-20T07:50:51.854Z,28.14
2017-06-20T07:51:51.882Z,28.14
2017-06-20T07:52:51.912Z,28.24
2017-06-20T07:53:51.932Z,28.18
2017-06-20T07:54:51.977Z,28.15
2017-06-20T07:55:52.003Z,28.17
2017-06-20T07:56:51.718Z,28.24
2017-06-20T07:57:52.315Z,28.22
2017-06-20T07:58:52.095Z,28.24
2017-06-20T07:59:52.117Z,28.25
2017-06-20T08:00:52.157Z,28.21
2017-06-20T08:01:52.182Z,28.19
2017-06-20T08:02:52.466Z,28.18
2017-06-20T08:03:51.928Z,28.24
2017-06-20T08:04:52.272Z,28.24
2017-06-20T08:05:52.305Z,28.18
2017-06-20T08:06:52.327Z,28.21
2017-06-20T08:07:52.611Z,28.22
2017-06-20T08:08:52.394Z,28.18
2017-06-20T08:09:52.416Z,28.21
2017-06-20T08:10:52.449Z,28.22
2017-06-20T08:11:52.169Z,28.24
2017-06-20T08:12:52.450Z,28.22
2017-06-20T08:13:52.224Z,28.24
2017-06-20T08:14:52.262Z,28.22
2017-06-20T08:15:52.598Z,28.24
2017-06-20T08:16:52.323Z,28.3
2017-06-20T08:17:52.604Z,28.29
2017-06-20T08:18:52.692Z,28.29
2017-06-20T08:19:52.413Z,28.3
2017-06-20T08:20:52.442Z,28.29
2017-06-20T08:21:52.796Z,28.29
2017-06-20T08:22:52.751Z,28.31
2017-06-20T08:23:52.534Z,28.27
2017-06-20T08:24:52.564Z,28.24
2017-06-20T08:25:52.591Z,28.25
2017-06-20T08:26:52.306Z,28.39
2017-06-20T08:27:52.856Z,28.33
2017-06-20T08:28:52.998Z,28.34
2017-06-20T08:29:52.711Z,28.29
2017-06-20T08:30:52.973Z,28.27
2017-06-20T08:31:52.775Z,28.39
2017-06-20T08:32:53.376Z,28.37
2017-06-20T08:33:53.137Z,28.39
2017-06-20T08:34:52.867Z,28.29
2017-06-20T08:35:52.895Z,28.34
2017-06-20T08:36:52.924Z,28.36
2017-06-20T08:37:53.521Z,28.37
2017-06-20T08:38:52.986Z,28.36
2017-06-20T08:39:53.015Z,28.33
2017-06-20T08:40:53.048Z,28.36
2017-06-20T08:41:53.073Z,28.36
2017-06-20T08:42:53.356Z,28.36
2017-06-20T08:43:53.452Z,28.36
2017-06-20T08:44:53.167Z,28.36
2017-06-20T08:45:53.511Z,28.3
2017-06-20T08:46:53.223Z,28.43
2017-06-20T08:47:53.821Z,28.36
2017-06-20T08:48:53.302Z,28.36
2017-06-20T08:49:53.633Z,28.36
2017-06-20T08:50:53.666Z,28.39
2017-06-20T08:51:53.368Z,28.4
2017-06-20T08:52:53.965Z,28.37
2017-06-20T08:53:53.432Z,28.34
2017-06-20T08:54:53.771Z,28.37
2017-06-20T08:55:53.808Z,28.36
2017-06-20T08:56:53.841Z,28.36
2017-06-20T08:57:53.813Z,28.37
2017-06-20T08:58:53.902Z,28.44
2017-06-20T08:59:53.310Z,28.37
2017-06-20T09:00:53.666Z,28.39
2017-06-20T09:01:53.996Z,28.34
2017-06-20T09:02:53.948Z,28.39
2017-06-20T09:03:54.050Z,28.43
2017-06-20T09:04:53.783Z,28.31
2017-06-20T09:05:53.799Z,28.4
2017-06-20T09:06:53.828Z,28.41
2017-06-20T09:07:54.425Z,28.41
2017-06-20T09:08:54.226Z,28.33
2017-06-20T09:09:54.238Z,28.39
2017-06-20T09:10:54.303Z,28.4
2017-06-20T09:11:53.985Z,28.37
2017-06-20T09:12:54.576Z,28.33
2017-06-20T09:13:54.034Z,28.37
2017-06-20T09:14:53.746Z,28.34
2017-06-20T09:15:54.413Z,28.3
2017-06-20T09:16:54.444Z,28.46
2017-06-20T09:17:54.408Z,28.46
2017-06-20T09:18:54.535Z,28.36
2017-06-20T09:19:54.538Z,28.39
2017-06-20T09:20:54.578Z,28.34
2017-06-20T09:21:54.596Z,28.44
2017-06-20T09:22:54.879Z,28.36
2017-06-20T09:23:54.341Z,28.39
2017-06-20T09:24:54.370Z,28.34
2017-06-20T09:25:54.399Z,28.4
2017-06-20T09:26:54.113Z,28.43
2017-06-20T09:27:54.453Z,28.43
2017-06-20T09:28:54.802Z,28.39
2017-06-20T09:29:54.522Z,28.39
2017-06-20T09:30:54.857Z,28.43
2017-06-20T09:31:54.581Z,28.34
2017-06-20T09:32:54.608Z,28.43
2017-06-20T09:33:54.949Z,28.34
2017-06-20T09:34:54.675Z,28.43
2017-06-20T09:35:55.018Z,28.46
2017-06-20T09:36:54.739Z,28.43
2017-06-20T09:37:54.772Z,28.4
2017-06-20T09:38:55.114Z,28.43
2017-06-20T09:39:54.826Z,28.4
2017-06-20T09:40:55.167Z,28.52
2017-06-20T09:41:55.202Z,28.48
2017-06-20T09:42:54.917Z,28.44
2017-06-20T09:43:54.950Z,28.39
2017-06-20T09:44:55.283Z,28.48
2017-06-20T09:45:54.704Z,28.52
2017-06-20T09:46:55.353Z,28.4
2017-06-20T09:47:54.757Z,28.4
2017-06-20T09:48:55.418Z,28.43
2017-06-20T09:49:55.449Z,28.39
2017-06-20T09:50:55.479Z,28.36
2017-06-20T09:51:55.193Z,28.44
2017-06-20T09:52:55.532Z,28.43
2017-06-20T09:53:54.942Z,28.41
2017-06-20T09:54:55.279Z,28.4
2017-06-20T09:55:55.618Z,28.49
2017-06-20T09:56:55.662Z,28.44
2017-06-20T09:57:55.371Z,28.44
2017-06-20T09:58:55.392Z,28.41
2017-06-20T09:59:55.742Z,28.39
2017-06-20T10:00:55.776Z,28.49
2017-06-20T10:01:55.489Z,28.54
2017-06-20T10:02:55.527Z,28.36
2017-06-20T10:03:55.867Z,28.41
2017-06-20T10:04:55.899Z,28.48
2017-06-20T10:05:55.925Z,28.49
2017-06-20T10:06:55.956Z,28.41
2017-06-20T10:07:55.719Z,28.54
2017-06-20T10:08:56.018Z,28.54
2017-06-20T10:09:56.053Z,28.52
2017-06-20T10:10:56.085Z,28.4
2017-06-20T10:11:56.109Z,28.4
2017-06-20T10:12:56.137Z,28.44
2017-06-20T10:13:55.857Z,28.48
2017-06-20T10:14:56.199Z,28.43
2017-06-20T10:15:56.229Z,28.4
2017-06-20T10:16:56.259Z,28.4
2017-06-20T10:17:56.294Z,28.46
2017-06-20T10:18:55.698Z,28.44
2017-06-20T10:19:56.350Z,28.48
2017-06-20T10:20:56.393Z,28.51
2017-06-20T10:21:56.414Z,28.54
2017-06-20T10:22:56.126Z,28.4
2017-06-20T10:23:56.471Z,28.55
2017-06-20T10:24:56.491Z,28.55
2017-06-20T10:25:56.533Z,28.54
2017-06-20T10:26:56.567Z,28.56
2017-06-20T10:27:56.598Z,28.48
2017-06-20T10:28:56.311Z,28.51
2017-06-20T10:29:56.656Z,28.49
2017-06-20T10:30:56.689Z,28.59
2017-06-20T10:31:56.717Z,28.64
2017-06-20T10:32:56.741Z,28.49
2017-06-20T10:33:56.743Z,28.51
2017-06-20T10:34:56.492Z,28.55
2017-06-20T10:35:56.836Z,28.58
2017-06-20T10:36:56.874Z,28.52
2017-06-20T10:37:56.270Z,28.52
2017-06-20T10:38:57.179Z,28.55
2017-06-20T10:39:56.954Z,28.56
2017-06-20T10:40:56.992Z,28.55
2017-06-20T10:41:57.020Z,28.49
2017-06-20T10:42:56.741Z,28.44
2017-06-20T10:43:57.331Z,28.54
2017-06-20T10:44:57.106Z,28.62
2017-06-20T10:45:57.135Z,28.51
2017-06-20T10:46:57.161Z,28.54
2017-06-20T10:47:57.201Z,28.54
2017-06-20T10:48:57.480Z,28.51
2017-06-20T10:49:57.264Z,28.61
2017-06-20T10:50:57.296Z,28.56
2017-06-20T10:51:57.330Z,28.61
2017-06-20T10:52:57.358Z,28.64
2017-06-20T10:53:57.635Z,28.64
2017-06-20T10:54:57.418Z,28.59
2017-06-20T10:55:56.820Z,28.66
2017-06-20T10:56:57.474Z,28.59
2017-06-20T10:57:57.198Z,28.62
2017-06-20T10:58:57.791Z,28.62
2017-06-20T10:59:57.568Z,28.64
2017-06-20T11:00:57.291Z,28.56
2017-06-20T11:01:57.318Z,28.66
2017-06-20T11:02:57.655Z,28.66
2017-06-20T11:03:57.636Z,28.62
2017-06-20T11:04:57.724Z,28.61
2017-06-20T11:05:57.440Z,28.62
2017-06-20T11:06:57.469Z,28.7
2017-06-20T11:07:57.501Z,28.7
2017-06-20T11:08:57.778Z,28.64
2017-06-20T11:09:57.877Z,28.68
2017-06-20T11:10:57.906Z,28.67
2017-06-20T11:11:57.616Z,28.67
2017-06-20T11:12:57.966Z,28.71
2017-06-20T11:13:58.245Z,28.7
2017-06-20T11:14:58.032Z,28.76
2017-06-20T11:15:58.057Z,28.67
2017-06-20T11:16:57.774Z,28.7
2017-06-20T11:17:58.113Z,28.73
2017-06-20T11:18:58.398Z,28.7
2017-06-20T11:19:58.185Z,28.76
2017-06-20T11:20:58.205Z,28.76
2017-06-20T11:21:57.926Z,28.73
2017-06-20T11:22:58.271Z,28.76
2017-06-20T11:23:58.555Z,28.71
2017-06-20T11:24:58.020Z,28.77
2017-06-20T11:25:58.051Z,28.71
2017-06-20T11:26:58.077Z,28.8
2017-06-20T11:27:58.106Z,28.86
2017-06-20T11:28:58.699Z,28.83
2017-06-20T11:29:58.477Z,28.8
2017-06-20T11:30:58.193Z,28.88
2017-06-20T11:31:58.233Z,28.8
2017-06-20T11:32:58.266Z,28.86
2017-06-20T11:33:58.856Z,28.86
2017-06-20T11:34:58.631Z,28.86
2017-06-20T11:35:58.664Z,28.89
2017-06-20T11:36:58.714Z,28.98
2017-06-20T11:37:58.414Z,29.09
2017-06-20T11:38:59.009Z,29.12
2017-06-20T11:39:58.785Z,29.27
2017-06-20T11:40:58.821Z,29.33
2017-06-20T11:41:58.229Z,29.43
2017-06-20T11:42:58.885Z,29.53
2017-06-20T11:43:58.860Z,29.65
2017-06-20T11:44:58.953Z,29.8
2017-06-20T11:45:58.669Z,29.95
2017-06-20T11:46:59.022Z,30.07
2017-06-20T11:47:59.055Z,30.24
2017-06-20T11:48:59.327Z,30.37
2017-06-20T11:49:59.105Z,30.58
2017-06-20T11:50:58.830Z,30.58
2017-06-20T11:51:59.175Z,30.75
2017-06-20T11:52:59.209Z,30.8
2017-06-20T11:53:59.128Z,30.97
2017-06-20T11:54:58.964Z,31.14
2017-06-20T11:55:59.301Z,31.25
2017-06-20T11:56:59.027Z,31.26
2017-06-20T11:57:59.371Z,31.5
2017-06-20T11:58:59.659Z,31.69
2017-06-20T11:59:58.817Z,31.69
2017-06-20T12:00:59.469Z,31.72
2017-06-20T12:01:59.190Z,31.89
2017-06-20T12:02:59.535Z,32.1
2017-06-20T12:03:59.519Z,32.13
2017-06-20T12:04:58.986Z,32.19
2017-06-20T12:05:59.329Z,32.32
2017-06-20T12:06:59.390Z,32.45
2017-06-20T12:07:59.398Z,32.52
2017-06-20T12:08:59.679Z,32.55
2017-06-20T12:09:59.469Z,32.67
2017-06-20T12:10:59.505Z,32.78
2017-06-20T12:11:59.230Z,32.81
2017-06-20T12:12:59.883Z,32.94
2017-06-20T12:14:00.171Z,33.01
2017-06-20T12:14:59.638Z,33.04
2017-06-20T12:15:59.989Z,33.07
2017-06-20T12:17:00.018Z,33.11
2017-06-20T12:17:59.747Z,33.26
2017-06-20T12:19:00.335Z,33.31
2017-06-20T12:19:59.817Z,33.39
2017-06-20T12:20:59.882Z,33.51
2017-06-20T12:21:59.886Z,33.51
2017-06-20T12:23:00.237Z,33.56
2017-06-20T12:24:00.519Z,33.61
2017-06-20T12:25:00.305Z,33.72
2017-06-20T12:26:00.339Z,33.63
2017-06-20T12:27:00.388Z,33.79
2017-06-20T12:28:00.412Z,33.81
2017-06-20T12:29:00.698Z,33.93
2017-06-20T12:30:00.477Z,33.93
2017-06-20T12:31:00.523Z,33.98
2017-06-20T12:32:00.551Z,34.12
2017-06-20T12:33:00.278Z,34.09
2017-06-20T12:34:00.877Z,34.12
2017-06-20T12:35:00.661Z,34.19
2017-06-20T12:36:00.702Z,34.21
2017-06-20T12:37:00.727Z,34.28
2017-06-20T12:38:00.460Z,34.3
2017-06-20T12:39:00.493Z,34.39
2017-06-20T12:40:00.533Z,34.32
2017-06-20T12:41:00.570Z,34.35
2017-06-20T12:42:00.908Z,34.44
2017-06-20T12:43:00.640Z,34.32
2017-06-20T12:44:00.980Z,34.46
2017-06-20T12:45:01.017Z,34.43
2017-06-20T12:46:01.058Z,34.52
2017-06-20T12:47:00.787Z,34.53
2017-06-20T12:48:00.823Z,34.43
2017-06-20T12:49:00.860Z,34.64
2017-06-20T12:50:01.196Z,34.62
2017-06-20T12:51:01.235Z,34.65
2017-06-20T12:52:01.280Z,34.64
2017-06-20T12:53:01.313Z,34.7
2017-06-20T12:54:01.030Z,34.72
2017-06-20T12:55:01.386Z,34.66
2017-06-20T12:56:01.098Z,34.73